sensor_id;sensor_type;location;lat;lon;timestamp;P1;durP1;ratioP1;P2;durP2;ratioP2
6983;SDS011;3532;51.118;7.210;2023-07-13T00:01:15;3.33;;;2.33;;
6983;SDS011;3532;51.118;7.210;2023-07-13T00:03:41;6.10;;;2.03;;
6983;SDS011;3532;51.118;7.210;2023-07-13T00:06:06;3.10;;;2.03;;
6983;SDS011;3532;51.118;7.210;2023-07-13T00:08:32;8.87;;;2.33;;
6983;SDS011;3532;51.118;7.210;2023-07-13T00:10:58;4.47;;;2.03;;
6983;SDS011;3532;51.118;7.210;2023-07-13T00:13:23;3.87;;;2.10;;
6983;SDS011;3532;51.118;7.210;2023-07-13T00:15:48;4.13;;;2.00;;
6983;SDS011;3532;51.118;7.210;2023-07-13T00:18:14;5.20;;;2.00;;
6983;SDS011;3532;51.118;7.210;2023-07-13T00:20:39;5.17;;;2.20;;
6983;SDS011;3532;51.118;7.210;2023-07-13T00:23:06;2.27;;;1.77;;
6983;SDS011;3532;51.118;7.210;2023-07-13T00:25:31;4.33;;;2.23;;
6983;SDS011;3532;51.118;7.210;2023-07-13T00:27:57;4.03;;;2.10;;
6983;SDS011;3532;51.118;7.210;2023-07-13T00:30:22;7.40;;;2.40;;
6983;SDS011;3532;51.118;7.210;2023-07-13T00:32:48;5.87;;;2.30;;
6983;SDS011;3532;51.118;7.210;2023-07-13T00:35:13;4.67;;;2.10;;
6983;SDS011;3532;51.118;7.210;2023-07-13T00:37:39;5.17;;;1.97;;
6983;SDS011;3532;51.118;7.210;2023-07-13T00:40:06;3.20;;;2.10;;
6983;SDS011;3532;51.118;7.210;2023-07-13T00:42:32;3.90;;;2.20;;
6983;SDS011;3532;51.118;7.210;2023-07-13T00:45:06;3.63;;;2.43;;
6983;SDS011;3532;51.118;7.210;2023-07-13T00:47:37;3.00;;;2.20;;
6983;SDS011;3532;51.118;7.210;2023-07-13T00:50:03;3.73;;;2.10;;
6983;SDS011;3532;51.118;7.210;2023-07-13T00:52:31;3.40;;;1.93;;
6983;SDS011;3532;51.118;7.210;2023-07-13T00:54:56;4.53;;;1.90;;
6983;SDS011;3532;51.118;7.210;2023-07-13T00:57:22;3.77;;;1.93;;
6983;SDS011;3532;51.118;7.210;2023-07-13T00:59:51;2.70;;;2.10;;
6983;SDS011;3532;51.118;7.210;2023-07-13T01:02:19;4.30;;;2.20;;
6983;SDS011;3532;51.118;7.210;2023-07-13T01:04:46;6.87;;;2.60;;
6983;SDS011;3532;51.118;7.210;2023-07-13T01:07:12;2.90;;;2.00;;
6983;SDS011;3532;51.118;7.210;2023-07-13T01:09:37;2.50;;;2.20;;
6983;SDS011;3532;51.118;7.210;2023-07-13T01:12:03;4.17;;;1.97;;
6983;SDS011;3532;51.118;7.210;2023-07-13T01:14:28;3.47;;;2.10;;
6983;SDS011;3532;51.118;7.210;2023-07-13T01:16:54;4.93;;;2.67;;
6983;SDS011;3532;51.118;7.210;2023-07-13T01:22:01;3.67;;;2.00;;
6983;SDS011;3532;51.118;7.210;2023-07-13T01:24:27;3.30;;;2.40;;
6983;SDS011;3532;51.118;7.210;2023-07-13T01:26:52;3.53;;;2.20;;
6983;SDS011;3532;51.118;7.210;2023-07-13T01:29:17;3.50;;;2.33;;
6983;SDS011;3532;51.118;7.210;2023-07-13T01:31:43;3.50;;;2.60;;
6983;SDS011;3532;51.118;7.210;2023-07-13T01:34:09;5.93;;;2.47;;
6983;SDS011;3532;51.118;7.210;2023-07-13T01:36:35;4.10;;;2.33;;
6983;SDS011;3532;51.118;7.210;2023-07-13T01:39:01;3.13;;;2.20;;
6983;SDS011;3532;51.118;7.210;2023-07-13T01:41:27;2.63;;;2.00;;
6983;SDS011;3532;51.118;7.210;2023-07-13T01:43:52;5.17;;;2.80;;
6983;SDS011;3532;51.118;7.210;2023-07-13T01:46:17;4.97;;;2.60;;
6983;SDS011;3532;51.118;7.210;2023-07-13T01:48:43;2.87;;;2.57;;
6983;SDS011;3532;51.118;7.210;2023-07-13T01:51:08;4.17;;;2.87;;
6983;SDS011;3532;51.118;7.210;2023-07-13T01:53:33;4.17;;;2.40;;
6983;SDS011;3532;51.118;7.210;2023-07-13T01:55:59;4.17;;;2.50;;
6983;SDS011;3532;51.118;7.210;2023-07-13T01:58:24;4.90;;;2.77;;
6983;SDS011;3532;51.118;7.210;2023-07-13T02:00:50;5.13;;;2.60;;
6983;SDS011;3532;51.118;7.210;2023-07-13T02:03:16;4.43;;;2.00;;
6983;SDS011;3532;51.118;7.210;2023-07-13T02:05:43;3.87;;;2.33;;
6983;SDS011;3532;51.118;7.210;2023-07-13T02:08:09;4.53;;;2.53;;
6983;SDS011;3532;51.118;7.210;2023-07-13T02:10:34;4.93;;;2.37;;
6983;SDS011;3532;51.118;7.210;2023-07-13T02:12:59;5.03;;;2.60;;
6983;SDS011;3532;51.118;7.210;2023-07-13T02:15:24;3.50;;;2.23;;
6983;SDS011;3532;51.118;7.210;2023-07-13T02:17:50;2.73;;;2.30;;
6983;SDS011;3532;51.118;7.210;2023-07-13T02:20:15;5.40;;;2.53;;
6983;SDS011;3532;51.118;7.210;2023-07-13T02:22:40;5.37;;;2.30;;
6983;SDS011;3532;51.118;7.210;2023-07-13T02:25:06;3.90;;;2.37;;
6983;SDS011;3532;51.118;7.210;2023-07-13T02:27:32;5.33;;;2.17;;
6983;SDS011;3532;51.118;7.210;2023-07-13T02:29:57;4.33;;;2.53;;
6983;SDS011;3532;51.118;7.210;2023-07-13T02:32:22;6.33;;;2.50;;
6983;SDS011;3532;51.118;7.210;2023-07-13T02:34:50;5.10;;;2.40;;
6983;SDS011;3532;51.118;7.210;2023-07-13T02:37:15;2.87;;;2.00;;
6983;SDS011;3532;51.118;7.210;2023-07-13T02:39:40;4.80;;;2.27;;
6983;SDS011;3532;51.118;7.210;2023-07-13T02:42:06;5.37;;;2.30;;
6983;SDS011;3532;51.118;7.210;2023-07-13T02:44:31;4.80;;;2.07;;
6983;SDS011;3532;51.118;7.210;2023-07-13T02:46:57;5.30;;;2.43;;
6983;SDS011;3532;51.118;7.210;2023-07-13T02:49:22;4.83;;;2.50;;
6983;SDS011;3532;51.118;7.210;2023-07-13T02:51:47;2.60;;;1.90;;
6983;SDS011;3532;51.118;7.210;2023-07-13T02:54:13;3.23;;;2.00;;
6983;SDS011;3532;51.118;7.210;2023-07-13T02:56:38;4.13;;;2.27;;
6983;SDS011;3532;51.118;7.210;2023-07-13T02:59:04;6.40;;;2.83;;
6983;SDS011;3532;51.118;7.210;2023-07-13T03:01:30;4.87;;;2.43;;
6983;SDS011;3532;51.118;7.210;2023-07-13T03:03:57;5.27;;;2.50;;
6983;SDS011;3532;51.118;7.210;2023-07-13T03:06:23;6.07;;;2.03;;
6983;SDS011;3532;51.118;7.210;2023-07-13T03:08:49;3.77;;;2.00;;
6983;SDS011;3532;51.118;7.210;2023-07-13T03:11:17;5.17;;;2.47;;
6983;SDS011;3532;51.118;7.210;2023-07-13T03:13:43;2.60;;;2.40;;
6983;SDS011;3532;51.118;7.210;2023-07-13T03:16:09;5.23;;;2.63;;
6983;SDS011;3532;51.118;7.210;2023-07-13T03:18:35;3.57;;;2.10;;
6983;SDS011;3532;51.118;7.210;2023-07-13T03:21:01;4.37;;;2.10;;
6983;SDS011;3532;51.118;7.210;2023-07-13T03:23:26;3.30;;;2.23;;
6983;SDS011;3532;51.118;7.210;2023-07-13T03:26:01;5.93;;;2.20;;
6983;SDS011;3532;51.118;7.210;2023-07-13T03:28:33;3.20;;;2.40;;
6983;SDS011;3532;51.118;7.210;2023-07-13T03:31:00;4.83;;;2.27;;
6983;SDS011;3532;51.118;7.210;2023-07-13T03:33:26;5.07;;;2.53;;
6983;SDS011;3532;51.118;7.210;2023-07-13T03:35:51;4.30;;;2.30;;
6983;SDS011;3532;51.118;7.210;2023-07-13T03:38:16;8.50;;;2.97;;
6983;SDS011;3532;51.118;7.210;2023-07-13T03:40:42;7.17;;;2.50;;
6983;SDS011;3532;51.118;7.210;2023-07-13T03:43:07;4.67;;;2.23;;
6983;SDS011;3532;51.118;7.210;2023-07-13T03:45:32;7.43;;;2.87;;
6983;SDS011;3532;51.118;7.210;2023-07-13T03:47:58;3.80;;;2.30;;
6983;SDS011;3532;51.118;7.210;2023-07-13T03:50:23;5.70;;;2.87;;
6983;SDS011;3532;51.118;7.210;2023-07-13T03:52:48;3.97;;;2.40;;
6983;SDS011;3532;51.118;7.210;2023-07-13T03:55:13;6.23;;;2.47;;
6983;SDS011;3532;51.118;7.210;2023-07-13T03:57:39;4.23;;;2.40;;
6983;SDS011;3532;51.118;7.210;2023-07-13T04:00:04;4.67;;;2.13;;
6983;SDS011;3532;51.118;7.210;2023-07-13T04:02:31;3.97;;;2.40;;
6983;SDS011;3532;51.118;7.210;2023-07-13T04:04:56;8.00;;;2.50;;
6983;SDS011;3532;51.118;7.210;2023-07-13T04:07:21;5.73;;;2.30;;
6983;SDS011;3532;51.118;7.210;2023-07-13T04:09:46;3.47;;;1.93;;
6983;SDS011;3532;51.118;7.210;2023-07-13T04:12:12;7.57;;;2.37;;
6983;SDS011;3532;51.118;7.210;2023-07-13T04:14:37;3.27;;;2.30;;
6983;SDS011;3532;51.118;7.210;2023-07-13T04:17:03;4.97;;;2.03;;
6983;SDS011;3532;51.118;7.210;2023-07-13T04:19:28;7.17;;;2.40;;
6983;SDS011;3532;51.118;7.210;2023-07-13T04:21:53;3.27;;;2.13;;
6983;SDS011;3532;51.118;7.210;2023-07-13T04:24:19;4.63;;;2.33;;
6983;SDS011;3532;51.118;7.210;2023-07-13T04:26:44;4.83;;;2.97;;
6983;SDS011;3532;51.118;7.210;2023-07-13T04:29:10;5.07;;;2.37;;
6983;SDS011;3532;51.118;7.210;2023-07-13T04:31:35;5.37;;;2.53;;
6983;SDS011;3532;51.118;7.210;2023-07-13T04:34:00;4.70;;;2.47;;
6983;SDS011;3532;51.118;7.210;2023-07-13T04:36:26;6.30;;;2.47;;
6983;SDS011;3532;51.118;7.210;2023-07-13T04:38:52;4.60;;;2.23;;
6983;SDS011;3532;51.118;7.210;2023-07-13T04:41:18;4.83;;;2.63;;
6983;SDS011;3532;51.118;7.210;2023-07-13T04:43:44;3.47;;;2.40;;
6983;SDS011;3532;51.118;7.210;2023-07-13T04:46:10;3.90;;;2.43;;
6983;SDS011;3532;51.118;7.210;2023-07-13T04:48:37;4.37;;;2.30;;
6983;SDS011;3532;51.118;7.210;2023-07-13T04:51:02;3.10;;;2.13;;
6983;SDS011;3532;51.118;7.210;2023-07-13T04:53:28;3.93;;;2.57;;
6983;SDS011;3532;51.118;7.210;2023-07-13T04:55:54;5.73;;;2.40;;
6983;SDS011;3532;51.118;7.210;2023-07-13T04:58:20;4.57;;;2.27;;
6983;SDS011;3532;51.118;7.210;2023-07-13T05:00:46;5.33;;;2.20;;
6983;SDS011;3532;51.118;7.210;2023-07-13T05:03:11;5.07;;;2.63;;
6983;SDS011;3532;51.118;7.210;2023-07-13T05:05:37;4.07;;;2.80;;
6983;SDS011;3532;51.118;7.210;2023-07-13T05:08:02;4.40;;;2.37;;
6983;SDS011;3532;51.118;7.210;2023-07-13T05:10:28;2.90;;;2.30;;
6983;SDS011;3532;51.118;7.210;2023-07-13T05:12:53;5.80;;;3.07;;
6983;SDS011;3532;51.118;7.210;2023-07-13T05:15:20;5.80;;;2.83;;
6983;SDS011;3532;51.118;7.210;2023-07-13T05:17:49;2.90;;;2.33;;
6983;SDS011;3532;51.118;7.210;2023-07-13T05:20:15;4.00;;;2.30;;
6983;SDS011;3532;51.118;7.210;2023-07-13T05:22:41;4.50;;;2.40;;
6983;SDS011;3532;51.118;7.210;2023-07-13T05:25:07;7.23;;;2.40;;
6983;SDS011;3532;51.118;7.210;2023-07-13T05:27:33;3.43;;;2.20;;
6983;SDS011;3532;51.118;7.210;2023-07-13T05:29:59;8.70;;;3.63;;
6983;SDS011;3532;51.118;7.210;2023-07-13T05:32:25;6.63;;;2.57;;
6983;SDS011;3532;51.118;7.210;2023-07-13T05:34:50;4.63;;;2.70;;
6983;SDS011;3532;51.118;7.210;2023-07-13T05:37:15;6.27;;;2.97;;
6983;SDS011;3532;51.118;7.210;2023-07-13T05:39:41;4.20;;;2.43;;
6983;SDS011;3532;51.118;7.210;2023-07-13T05:42:06;3.33;;;2.20;;
6983;SDS011;3532;51.118;7.210;2023-07-13T05:44:31;5.03;;;2.77;;
6983;SDS011;3532;51.118;7.210;2023-07-13T05:46:57;7.47;;;3.20;;
6983;SDS011;3532;51.118;7.210;2023-07-13T05:49:22;7.27;;;3.00;;
6983;SDS011;3532;51.118;7.210;2023-07-13T05:51:48;5.07;;;2.63;;
6983;SDS011;3532;51.118;7.210;2023-07-13T05:54:13;4.47;;;2.90;;
6983;SDS011;3532;51.118;7.210;2023-07-13T05:56:38;6.77;;;3.20;;
6983;SDS011;3532;51.118;7.210;2023-07-13T05:59:04;3.80;;;2.60;;
6983;SDS011;3532;51.118;7.210;2023-07-13T06:01:29;6.73;;;3.27;;
6983;SDS011;3532;51.118;7.210;2023-07-13T06:03:55;4.53;;;2.83;;
6983;SDS011;3532;51.118;7.210;2023-07-13T06:06:20;7.47;;;2.37;;
6983;SDS011;3532;51.118;7.210;2023-07-13T06:08:45;6.13;;;3.20;;
6983;SDS011;3532;51.118;7.210;2023-07-13T06:11:15;5.10;;;2.60;;
6983;SDS011;3532;51.118;7.210;2023-07-13T06:13:42;4.40;;;3.00;;
6983;SDS011;3532;51.118;7.210;2023-07-13T06:16:07;5.73;;;3.13;;
6983;SDS011;3532;51.118;7.210;2023-07-13T06:18:34;7.30;;;2.60;;
6983;SDS011;3532;51.118;7.210;2023-07-13T06:21:10;6.17;;;3.13;;
6983;SDS011;3532;51.118;7.210;2023-07-13T06:23:37;6.20;;;2.97;;
6983;SDS011;3532;51.118;7.210;2023-07-13T06:26:03;5.80;;;3.10;;
6983;SDS011;3532;51.118;7.210;2023-07-13T06:28:29;7.30;;;3.50;;
6983;SDS011;3532;51.118;7.210;2023-07-13T06:30:55;5.83;;;2.97;;
6983;SDS011;3532;51.118;7.210;2023-07-13T06:33:20;5.43;;;2.90;;
6983;SDS011;3532;51.118;7.210;2023-07-13T06:35:46;7.30;;;2.80;;
6983;SDS011;3532;51.118;7.210;2023-07-13T06:38:11;6.30;;;3.30;;
6983;SDS011;3532;51.118;7.210;2023-07-13T06:40:36;6.70;;;3.60;;
6983;SDS011;3532;51.118;7.210;2023-07-13T06:43:01;6.13;;;3.23;;
6983;SDS011;3532;51.118;7.210;2023-07-13T06:45:27;4.37;;;2.60;;
6983;SDS011;3532;51.118;7.210;2023-07-13T06:47:52;5.47;;;3.27;;
6983;SDS011;3532;51.118;7.210;2023-07-13T06:50:17;6.87;;;3.00;;
6983;SDS011;3532;51.118;7.210;2023-07-13T06:52:43;6.37;;;3.00;;
6983;SDS011;3532;51.118;7.210;2023-07-13T06:55:09;5.50;;;3.43;;
6983;SDS011;3532;51.118;7.210;2023-07-13T06:57:34;10.27;;;3.10;;
6983;SDS011;3532;51.118;7.210;2023-07-13T06:59:59;7.50;;;3.10;;
6983;SDS011;3532;51.118;7.210;2023-07-13T07:02:25;11.77;;;3.77;;
6983;SDS011;3532;51.118;7.210;2023-07-13T07:04:50;8.77;;;3.30;;
6983;SDS011;3532;51.118;7.210;2023-07-13T07:07:15;6.03;;;3.40;;
6983;SDS011;3532;51.118;7.210;2023-07-13T07:09:41;8.43;;;3.30;;
6983;SDS011;3532;51.118;7.210;2023-07-13T07:12:06;5.13;;;2.90;;
6983;SDS011;3532;51.118;7.210;2023-07-13T07:14:32;8.17;;;3.33;;
6983;SDS011;3532;51.118;7.210;2023-07-13T07:16:59;7.17;;;3.17;;
6983;SDS011;3532;51.118;7.210;2023-07-13T07:19:24;7.30;;;3.20;;
6983;SDS011;3532;51.118;7.210;2023-07-13T07:21:49;5.20;;;3.03;;
6983;SDS011;3532;51.118;7.210;2023-07-13T07:24:15;5.80;;;3.00;;
6983;SDS011;3532;51.118;7.210;2023-07-13T07:26:40;5.27;;;3.03;;
6983;SDS011;3532;51.118;7.210;2023-07-13T07:29:06;8.67;;;3.10;;
6983;SDS011;3532;51.118;7.210;2023-07-13T07:31:31;4.93;;;3.33;;
6983;SDS011;3532;51.118;7.210;2023-07-13T07:33:56;8.13;;;3.57;;
6983;SDS011;3532;51.118;7.210;2023-07-13T07:36:22;7.40;;;2.93;;
6983;SDS011;3532;51.118;7.210;2023-07-13T07:38:47;5.97;;;3.40;;
6983;SDS011;3532;51.118;7.210;2023-07-13T07:41:13;4.40;;;3.27;;
6983;SDS011;3532;51.118;7.210;2023-07-13T07:43:38;4.27;;;3.07;;
6983;SDS011;3532;51.118;7.210;2023-07-13T07:46:04;5.30;;;3.33;;
6983;SDS011;3532;51.118;7.210;2023-07-13T07:48:29;7.77;;;3.70;;
6983;SDS011;3532;51.118;7.210;2023-07-13T07:50:55;6.53;;;3.87;;
6983;SDS011;3532;51.118;7.210;2023-07-13T07:53:20;4.07;;;2.67;;
6983;SDS011;3532;51.118;7.210;2023-07-13T07:55:45;8.43;;;2.73;;
6983;SDS011;3532;51.118;7.210;2023-07-13T07:58:11;6.30;;;3.47;;
6983;SDS011;3532;51.118;7.210;2023-07-13T08:00:36;6.20;;;4.10;;
6983;SDS011;3532;51.118;7.210;2023-07-13T08:03:01;5.53;;;3.17;;
6983;SDS011;3532;51.118;7.210;2023-07-13T08:05:27;10.00;;;3.33;;
6983;SDS011;3532;51.118;7.210;2023-07-13T08:07:53;5.97;;;3.90;;
6983;SDS011;3532;51.118;7.210;2023-07-13T08:10:18;5.87;;;3.47;;
6983;SDS011;3532;51.118;7.210;2023-07-13T08:12:43;9.13;;;4.40;;
6983;SDS011;3532;51.118;7.210;2023-07-13T08:15:10;6.57;;;4.10;;
6983;SDS011;3532;51.118;7.210;2023-07-13T08:17:38;8.80;;;4.27;;
6983;SDS011;3532;51.118;7.210;2023-07-13T08:20:04;6.83;;;4.20;;
6983;SDS011;3532;51.118;7.210;2023-07-13T08:22:29;5.77;;;3.87;;
6983;SDS011;3532;51.118;7.210;2023-07-13T08:24:55;8.67;;;3.90;;
6983;SDS011;3532;51.118;7.210;2023-07-13T08:27:21;6.73;;;3.73;;
6983;SDS011;3532;51.118;7.210;2023-07-13T08:29:47;7.37;;;3.97;;
6983;SDS011;3532;51.118;7.210;2023-07-13T08:32:13;8.33;;;4.50;;
6983;SDS011;3532;51.118;7.210;2023-07-13T08:34:38;4.67;;;3.70;;
6983;SDS011;3532;51.118;7.210;2023-07-13T08:37:04;8.17;;;3.80;;
6983;SDS011;3532;51.118;7.210;2023-07-13T08:39:30;6.43;;;3.90;;
6983;SDS011;3532;51.118;7.210;2023-07-13T08:41:57;6.30;;;3.70;;
6983;SDS011;3532;51.118;7.210;2023-07-13T08:45:12;6.47;;;4.20;;
6983;SDS011;3532;51.118;7.210;2023-07-13T08:47:31;4.63;;;3.37;;
6983;SDS011;3532;51.118;7.210;2023-07-13T08:49:58;5.70;;;3.80;;
6983;SDS011;3532;51.118;7.210;2023-07-13T08:52:32;5.67;;;4.17;;
6983;SDS011;3532;51.118;7.210;2023-07-13T08:55:21;6.13;;;3.70;;
6983;SDS011;3532;51.118;7.210;2023-07-13T08:57:53;6.03;;;3.50;;
6983;SDS011;3532;51.118;7.210;2023-07-13T09:00:21;9.73;;;4.03;;
6983;SDS011;3532;51.118;7.210;2023-07-13T09:02:56;5.63;;;3.60;;
6983;SDS011;3532;51.118;7.210;2023-07-13T09:05:25;5.10;;;3.63;;
6983;SDS011;3532;51.118;7.210;2023-07-13T09:13:17;5.80;;;3.57;;
6983;SDS011;3532;51.118;7.210;2023-07-13T09:15:51;6.47;;;3.70;;
6983;SDS011;3532;51.118;7.210;2023-07-13T09:21:08;7.80;;;3.47;;
6983;SDS011;3532;51.118;7.210;2023-07-13T09:23:35;8.10;;;3.93;;
6983;SDS011;3532;51.118;7.210;2023-07-13T09:28:47;7.53;;;3.90;;
6983;SDS011;3532;51.118;7.210;2023-07-13T09:33:58;5.23;;;3.80;;
6983;SDS011;3532;51.118;7.210;2023-07-13T09:36:24;9.43;;;4.00;;
6983;SDS011;3532;51.118;7.210;2023-07-13T09:39:04;6.47;;;3.67;;
6983;SDS011;3532;51.118;7.210;2023-07-13T09:44:36;5.03;;;3.67;;
6983;SDS011;3532;51.118;7.210;2023-07-13T09:47:03;6.30;;;3.63;;
6983;SDS011;3532;51.118;7.210;2023-07-13T09:49:38;5.30;;;3.63;;
6983;SDS011;3532;51.118;7.210;2023-07-13T09:52:04;6.17;;;3.70;;
6983;SDS011;3532;51.118;7.210;2023-07-13T09:54:35;4.50;;;3.63;;
6983;SDS011;3532;51.118;7.210;2023-07-13T09:57:01;8.37;;;3.67;;
6983;SDS011;3532;51.118;7.210;2023-07-13T09:59:33;5.60;;;4.20;;
6983;SDS011;3532;51.118;7.210;2023-07-13T10:01:59;5.47;;;3.80;;
6983;SDS011;3532;51.118;7.210;2023-07-13T10:04:30;6.80;;;3.13;;
6983;SDS011;3532;51.118;7.210;2023-07-13T10:07:08;5.63;;;3.43;;
6983;SDS011;3532;51.118;7.210;2023-07-13T10:09:34;5.93;;;3.57;;
6983;SDS011;3532;51.118;7.210;2023-07-13T10:12:00;6.40;;;3.90;;
6983;SDS011;3532;51.118;7.210;2023-07-13T10:14:26;3.93;;;3.20;;
6983;SDS011;3532;51.118;7.210;2023-07-13T10:16:54;5.67;;;3.67;;
6983;SDS011;3532;51.118;7.210;2023-07-13T10:19:24;4.13;;;3.43;;
6983;SDS011;3532;51.118;7.210;2023-07-13T10:21:55;4.80;;;3.60;;
6983;SDS011;3532;51.118;7.210;2023-07-13T10:24:25;11.03;;;3.90;;
6983;SDS011;3532;51.118;7.210;2023-07-13T10:29:27;7.87;;;3.57;;
6983;SDS011;3532;51.118;7.210;2023-07-13T10:31:54;7.87;;;3.60;;
6983;SDS011;3532;51.118;7.210;2023-07-13T10:34:22;6.53;;;3.50;;
6983;SDS011;3532;51.118;7.210;2023-07-13T10:36:48;8.17;;;3.30;;
6983;SDS011;3532;51.118;7.210;2023-07-13T10:39:15;5.20;;;3.00;;
6983;SDS011;3532;51.118;7.210;2023-07-13T10:41:42;5.23;;;3.10;;
6983;SDS011;3532;51.118;7.210;2023-07-13T10:44:13;5.00;;;3.10;;
6983;SDS011;3532;51.118;7.210;2023-07-13T10:46:43;5.13;;;3.03;;
6983;SDS011;3532;51.118;7.210;2023-07-13T10:49:10;3.57;;;2.87;;
6983;SDS011;3532;51.118;7.210;2023-07-13T10:51:35;5.70;;;2.87;;
6983;SDS011;3532;51.118;7.210;2023-07-13T10:54:18;8.50;;;3.70;;
6983;SDS011;3532;51.118;7.210;2023-07-13T10:59:43;5.30;;;3.27;;
6983;SDS011;3532;51.118;7.210;2023-07-13T11:02:20;6.60;;;2.60;;
6983;SDS011;3532;51.118;7.210;2023-07-13T11:04:48;4.33;;;2.63;;
6983;SDS011;3532;51.118;7.210;2023-07-13T11:07:19;7.23;;;3.10;;
6983;SDS011;3532;51.118;7.210;2023-07-13T11:10:05;4.47;;;3.10;;
6983;SDS011;3532;51.118;7.210;2023-07-13T11:12:51;8.27;;;3.53;;
6983;SDS011;3532;51.118;7.210;2023-07-13T11:15:27;4.53;;;2.70;;
6983;SDS011;3532;51.118;7.210;2023-07-13T11:17:56;4.03;;;2.97;;
6983;SDS011;3532;51.118;7.210;2023-07-13T11:20:33;5.27;;;2.57;;
6983;SDS011;3532;51.118;7.210;2023-07-13T11:25:42;7.27;;;2.87;;
6983;SDS011;3532;51.118;7.210;2023-07-13T11:35:33;5.47;;;3.10;;
6983;SDS011;3532;51.118;7.210;2023-07-13T11:38:01;3.07;;;2.30;;
6983;SDS011;3532;51.118;7.210;2023-07-13T11:40:27;5.17;;;3.13;;
6983;SDS011;3532;51.118;7.210;2023-07-13T11:43:01;6.33;;;2.83;;
6983;SDS011;3532;51.118;7.210;2023-07-13T11:45:26;3.63;;;2.83;;
6983;SDS011;3532;51.118;7.210;2023-07-13T11:47:53;6.50;;;2.90;;
6983;SDS011;3532;51.118;7.210;2023-07-13T11:50:19;4.10;;;2.70;;
6983;SDS011;3532;51.118;7.210;2023-07-13T11:52:46;5.93;;;3.00;;
6983;SDS011;3532;51.118;7.210;2023-07-13T11:55:14;4.17;;;2.80;;
6983;SDS011;3532;51.118;7.210;2023-07-13T11:57:44;5.63;;;2.80;;
6983;SDS011;3532;51.118;7.210;2023-07-13T12:00:17;5.73;;;3.17;;
6983;SDS011;3532;51.118;7.210;2023-07-13T12:02:52;6.47;;;3.00;;
6983;SDS011;3532;51.118;7.210;2023-07-13T12:05:19;8.27;;;2.77;;
6983;SDS011;3532;51.118;7.210;2023-07-13T12:07:48;2.90;;;2.30;;
6983;SDS011;3532;51.118;7.210;2023-07-13T12:12:47;5.30;;;2.50;;
6983;SDS011;3532;51.118;7.210;2023-07-13T12:15:14;4.57;;;2.33;;
6983;SDS011;3532;51.118;7.210;2023-07-13T12:17:39;3.57;;;2.57;;
6983;SDS011;3532;51.118;7.210;2023-07-13T12:20:20;7.73;;;3.20;;
6983;SDS011;3532;51.118;7.210;2023-07-13T12:22:47;6.00;;;3.13;;
6983;SDS011;3532;51.118;7.210;2023-07-13T12:25:13;4.77;;;2.90;;
6983;SDS011;3532;51.118;7.210;2023-07-13T12:27:38;6.03;;;2.70;;
6983;SDS011;3532;51.118;7.210;2023-07-13T12:30:05;6.90;;;2.80;;
6983;SDS011;3532;51.118;7.210;2023-07-13T12:32:59;4.07;;;2.83;;
6983;SDS011;3532;51.118;7.210;2023-07-13T12:35:26;5.50;;;2.87;;
6983;SDS011;3532;51.118;7.210;2023-07-13T12:37:54;5.10;;;2.67;;
6983;SDS011;3532;51.118;7.210;2023-07-13T12:40:24;7.20;;;2.70;;
6983;SDS011;3532;51.118;7.210;2023-07-13T12:42:52;5.70;;;2.83;;
6983;SDS011;3532;51.118;7.210;2023-07-13T12:45:19;2.50;;;2.30;;
6983;SDS011;3532;51.118;7.210;2023-07-13T12:47:50;5.17;;;2.90;;
6983;SDS011;3532;51.118;7.210;2023-07-13T12:50:19;4.47;;;2.90;;
6983;SDS011;3532;51.118;7.210;2023-07-13T12:52:54;3.47;;;2.20;;
6983;SDS011;3532;51.118;7.210;2023-07-13T12:55:21;2.83;;;2.13;;
6983;SDS011;3532;51.118;7.210;2023-07-13T12:57:51;6.20;;;2.90;;
6983;SDS011;3532;51.118;7.210;2023-07-13T13:02:50;4.70;;;2.40;;
6983;SDS011;3532;51.118;7.210;2023-07-13T13:05:16;6.33;;;2.50;;
6983;SDS011;3532;51.118;7.210;2023-07-13T13:07:41;5.13;;;3.00;;
6983;SDS011;3532;51.118;7.210;2023-07-13T13:10:13;5.67;;;2.43;;
6983;SDS011;3532;51.118;7.210;2023-07-13T13:12:39;3.80;;;2.60;;
6983;SDS011;3532;51.118;7.210;2023-07-13T13:15:07;3.27;;;2.40;;
6983;SDS011;3532;51.118;7.210;2023-07-13T13:17:33;3.10;;;2.80;;
6983;SDS011;3532;51.118;7.210;2023-07-13T13:19:59;5.70;;;2.87;;
6983;SDS011;3532;51.118;7.210;2023-07-13T13:22:24;3.80;;;2.50;;
6983;SDS011;3532;51.118;7.210;2023-07-13T13:24:49;6.33;;;2.87;;
6983;SDS011;3532;51.118;7.210;2023-07-13T13:27:18;5.33;;;2.60;;
6983;SDS011;3532;51.118;7.210;2023-07-13T13:29:46;11.77;;;2.83;;
6983;SDS011;3532;51.118;7.210;2023-07-13T13:32:12;3.20;;;2.57;;
6983;SDS011;3532;51.118;7.210;2023-07-13T13:34:38;5.20;;;2.00;;
6983;SDS011;3532;51.118;7.210;2023-07-13T13:37:04;3.70;;;2.20;;
6983;SDS011;3532;51.118;7.210;2023-07-13T13:39:35;3.43;;;2.37;;
6983;SDS011;3532;51.118;7.210;2023-07-13T13:42:01;4.53;;;2.13;;
6983;SDS011;3532;51.118;7.210;2023-07-13T13:44:27;8.43;;;2.43;;
6983;SDS011;3532;51.118;7.210;2023-07-13T13:46:53;3.87;;;2.40;;
6983;SDS011;3532;51.118;7.210;2023-07-13T13:49:23;7.40;;;2.70;;
6983;SDS011;3532;51.118;7.210;2023-07-13T13:51:50;4.10;;;2.47;;
6983;SDS011;3532;51.118;7.210;2023-07-13T13:54:16;3.87;;;2.40;;
6983;SDS011;3532;51.118;7.210;2023-07-13T13:56:43;4.63;;;2.20;;
6983;SDS011;3532;51.118;7.210;2023-07-13T13:59:10;5.73;;;2.97;;
6983;SDS011;3532;51.118;7.210;2023-07-13T14:01:35;7.00;;;2.57;;
6983;SDS011;3532;51.118;7.210;2023-07-13T14:04:02;3.27;;;2.10;;
6983;SDS011;3532;51.118;7.210;2023-07-13T14:06:27;2.97;;;2.30;;
6983;SDS011;3532;51.118;7.210;2023-07-13T14:08:53;3.20;;;2.23;;
6983;SDS011;3532;51.118;7.210;2023-07-13T14:11:20;3.90;;;1.90;;
6983;SDS011;3532;51.118;7.210;2023-07-13T14:13:50;1.93;;;1.80;;
6983;SDS011;3532;51.118;7.210;2023-07-13T14:16:20;3.27;;;1.87;;
6983;SDS011;3532;51.118;7.210;2023-07-13T14:18:47;3.43;;;2.27;;
6983;SDS011;3532;51.118;7.210;2023-07-13T14:21:14;4.47;;;2.47;;
6983;SDS011;3532;51.118;7.210;2023-07-13T14:23:40;4.43;;;2.50;;
6983;SDS011;3532;51.118;7.210;2023-07-13T14:26:14;3.60;;;2.40;;
6983;SDS011;3532;51.118;7.210;2023-07-13T14:28:44;2.83;;;2.20;;
6983;SDS011;3532;51.118;7.210;2023-07-13T14:31:12;3.40;;;1.97;;
6983;SDS011;3532;51.118;7.210;2023-07-13T14:33:38;2.87;;;1.93;;
6983;SDS011;3532;51.118;7.210;2023-07-13T14:36:09;4.13;;;2.70;;
6983;SDS011;3532;51.118;7.210;2023-07-13T14:38:41;4.33;;;2.40;;
6983;SDS011;3532;51.118;7.210;2023-07-13T14:41:07;3.80;;;2.43;;
6983;SDS011;3532;51.118;7.210;2023-07-13T14:43:33;2.20;;;2.00;;
6983;SDS011;3532;51.118;7.210;2023-07-13T14:45:58;4.70;;;2.60;;
6983;SDS011;3532;51.118;7.210;2023-07-13T14:48:24;3.07;;;2.77;;
6983;SDS011;3532;51.118;7.210;2023-07-13T14:50:51;5.13;;;2.53;;
6983;SDS011;3532;51.118;7.210;2023-07-13T14:53:19;4.40;;;2.17;;
6983;SDS011;3532;51.118;7.210;2023-07-13T14:55:44;2.50;;;2.20;;
6983;SDS011;3532;51.118;7.210;2023-07-13T14:58:09;4.00;;;1.83;;
6983;SDS011;3532;51.118;7.210;2023-07-13T15:00:35;2.67;;;2.30;;
6983;SDS011;3532;51.118;7.210;2023-07-13T15:03:00;4.63;;;2.20;;
6983;SDS011;3532;51.118;7.210;2023-07-13T15:05:30;3.47;;;2.30;;
6983;SDS011;3532;51.118;7.210;2023-07-13T15:07:57;4.87;;;2.50;;
6983;SDS011;3532;51.118;7.210;2023-07-13T15:10:28;3.20;;;2.30;;
6983;SDS011;3532;51.118;7.210;2023-07-13T15:13:00;4.23;;;2.20;;
6983;SDS011;3532;51.118;7.210;2023-07-13T15:15:49;3.20;;;2.17;;
6983;SDS011;3532;51.118;7.210;2023-07-13T15:18:17;3.33;;;2.00;;
6983;SDS011;3532;51.118;7.210;2023-07-13T15:20:48;4.30;;;2.20;;
6983;SDS011;3532;51.118;7.210;2023-07-13T15:23:15;4.10;;;2.40;;
6983;SDS011;3532;51.118;7.210;2023-07-13T15:25:42;4.33;;;2.57;;
6983;SDS011;3532;51.118;7.210;2023-07-13T15:28:08;2.50;;;1.83;;
6983;SDS011;3532;51.118;7.210;2023-07-13T15:30:36;4.80;;;2.60;;
6983;SDS011;3532;51.118;7.210;2023-07-13T15:33:09;3.07;;;2.60;;
6983;SDS011;3532;51.118;7.210;2023-07-13T15:35:37;3.00;;;2.10;;
6983;SDS011;3532;51.118;7.210;2023-07-13T15:38:10;4.03;;;2.50;;
6983;SDS011;3532;51.118;7.210;2023-07-13T15:40:38;4.87;;;2.33;;
6983;SDS011;3532;51.118;7.210;2023-07-13T15:43:07;4.93;;;2.60;;
6983;SDS011;3532;51.118;7.210;2023-07-13T15:45:36;2.83;;;2.13;;
6983;SDS011;3532;51.118;7.210;2023-07-13T15:48:01;2.80;;;2.10;;
6983;SDS011;3532;51.118;7.210;2023-07-13T15:50:26;7.53;;;2.70;;
6983;SDS011;3532;51.118;7.210;2023-07-13T15:52:57;5.57;;;2.43;;
6983;SDS011;3532;51.118;7.210;2023-07-13T15:55:23;3.57;;;2.60;;